Time;durP1;ratioP1;P1;durP2;ratioP2;P2;SDS_P1;SDS_P2;PMS_P1;PMS_P2;Temp;Humidity;BMP_temperature;BMP_pressure;BME280_temperature;BME280_humidity;BME280_pressure;Samples;Min_cycle;Max_cycle;Signal;HPM_P1;HPM_P2
2023/01/27 00:01:17;;;;;;;17.48;3.03;;;8.60;95.30;;;;;;7388233;19;20729;-79
2023/01/27 00:03:46;;;;;;;10.40;3.65;;;8.60;95.10;;;;;;7367459;19;20024;-79
2023/01/27 00:06:14;;;;;;;18.85;3.63;;;8.70;95.20;;;;;;7368279;19;20416;-79
2023/01/27 00:08:43;;;;;;;12.35;3.13;;;8.60;94.90;;;;;;7369539;19;20014;-80
2023/01/27 00:13:53;;;;;;;11.38;3.03;;;8.50;94.50;;;;;;7368837;19;20080;-79
2023/01/27 00:16:24;;;;;;;11.70;2.70;;;8.50;94.50;;;;;;7388621;19;20025;-80
2023/01/27 00:18:53;;;;;;;13.23;3.30;;;8.40;94.50;;;;;;7364922;19;20392;-79
2023/01/27 00:26:47;;;;;;;13.07;3.28;;;8.70;94.00;;;;;;7368316;19;20018;-79
2023/01/27 00:29:16;;;;;;;18.00;3.70;;;8.70;93.60;;;;;;7370296;19;20014;-79
2023/01/27 00:34:29;;;;;;;10.88;2.65;;;8.60;93.80;;;;;;7370114;19;20284;-79
2023/01/27 00:36:57;;;;;;;12.98;3.28;;;8.70;93.60;;;;;;7389940;19;20077;-79
2023/01/27 00:39:26;;;;;;;10.95;2.88;;;8.70;93.50;;;;;;7368221;19;20118;-78
2023/01/27 00:41:55;;;;;;;8.13;2.25;;;8.60;93.30;;;;;;7370092;19;20480;-79
2023/01/27 00:44:23;;;;;;;15.82;3.47;;;8.70;93.50;;;;;;7370479;19;20082;-78
2023/01/27 00:46:55;;;;;;;14.98;3.33;;;8.70;93.70;;;;;;7374160;19;20506;-79
2023/01/27 00:49:24;;;;;;;11.30;2.60;;;8.70;93.80;;;;;;7399957;19;20054;-78
2023/01/27 00:51:53;;;;;;;12.77;2.55;;;8.80;94.10;;;;;;7374286;19;20021;-78
2023/01/27 00:54:23;;;;;;;16.08;3.00;;;8.60;94.00;;;;;;7369157;19;20018;-79
2023/01/27 00:56:51;;;;;;;11.23;2.75;;;8.60;93.90;;;;;;7373367;19;20018;-78
2023/01/27 00:59:21;;;;;;;15.27;3.17;;;8.60;94.20;;;;;;7371892;19;20081;-78
2023/01/27 01:01:50;;;;;;;13.73;3.22;;;8.60;94.00;;;;;;7375413;19;20039;-78
2023/01/27 01:04:21;;;;;;;13.50;3.03;;;8.70;94.10;;;;;;7399800;19;20507;-78
2023/01/27 01:06:50;;;;;;;13.50;2.65;;;8.70;94.30;;;;;;7372116;19;20525;-78
2023/01/27 01:09:18;;;;;;;11.25;2.60;;;8.80;93.90;;;;;;7371992;19;20058;-78
2023/01/27 01:11:47;;;;;;;19.63;3.22;;;8.80;93.90;;;;;;7371189;19;20177;-78
2023/01/27 01:14:15;;;;;;;13.80;2.50;;;8.80;93.80;;;;;;7370581;19;20098;-78
2023/01/27 01:16:44;;;;;;;13.05;2.97;;;8.90;93.80;;;;;;7367791;19;20510;-78
2023/01/27 01:19:13;;;;;;;13.77;3.13;;;8.80;93.60;;;;;;7392466;19;20176;-78
2023/01/27 01:21:44;;;;;;;14.32;2.50;;;8.70;93.50;;;;;;7369077;19;20014;-78
2023/01/27 01:24:13;;;;;;;12.15;3.17;;;8.60;93.70;;;;;;7369982;19;20011;-78
2023/01/27 01:26:41;;;;;;;17.40;3.28;;;8.60;93.90;;;;;;7367889;19;20023;-78
2023/01/27 01:29:10;;;;;;;10.57;2.47;;;8.70;93.80;;;;;;7367820;19;20090;-78
2023/01/27 01:31:39;;;;;;;18.95;2.80;;;8.80;93.70;;;;;;7367739;19;20158;-78
2023/01/27 01:34:07;;;;;;;19.48;3.45;;;8.70;93.50;;;;;;7389404;19;20006;-78
2023/01/27 01:36:36;;;;;;;16.95;3.47;;;8.70;93.40;;;;;;7367909;19;20021;-78
2023/01/27 01:39:07;;;;;;;11.65;2.58;;;8.80;93.50;;;;;;7368288;19;20046;-78
2023/01/27 01:41:36;;;;;;;11.73;2.35;;;8.80;93.40;;;;;;7367941;19;20018;-78
2023/01/27 01:44:21;;;;;;;19.33;3.75;;;8.90;93.40;;;;;;7368293;19;20018;-78
2023/01/27 01:46:49;;;;;;;14.30;2.83;;;8.80;93.40;;;;;;7368513;19;20505;-78
2023/01/27 01:49:23;;;;;;;17.48;3.33;;;8.80;93.30;;;;;;7389602;19;20025;-79
2023/01/27 01:51:56;;;;;;;12.00;2.75;;;8.80;93.40;;;;;;7367205;19;20070;-79
2023/01/27 01:54:31;;;;;;;12.15;2.67;;;8.80;93.70;;;;;;7369090;19;20085;-79
2023/01/27 01:57:04;;;;;;;22.73;3.05;;;8.70;93.80;;;;;;7375867;19;20014;-79
2023/01/27 01:59:36;;;;;;;14.48;2.97;;;8.80;93.70;;;;;;7376516;19;20014;-78
2023/01/27 02:02:09;;;;;;;21.60;2.78;;;8.90;93.60;;;;;;7375745;19;20014;-79
2023/01/27 02:04:42;;;;;;;11.25;2.50;;;8.70;93.70;;;;;;7374399;19;20018;-78
2023/01/27 02:07:18;;;;;;;12.90;2.97;;;8.80;93.80;;;;;;7393297;19;20029;-79
2023/01/27 02:09:50;;;;;;;12.23;2.42;;;8.90;93.80;;;;;;7374160;19;20039;-79
2023/01/27 02:12:18;;;;;;;15.70;2.80;;;8.80;93.50;;;;;;7374228;19;20125;-79
2023/01/27 02:14:47;;;;;;;13.77;2.72;;;8.90;93.50;;;;;;7375248;19;20553;-79
2023/01/27 02:17:17;;;;;;;10.15;2.70;;;8.80;93.40;;;;;;7372884;19;20022;-78
2023/01/27 02:19:55;;;;;;;13.40;3.17;;;8.80;93.50;;;;;;7374129;19;20093;-78
2023/01/27 02:22:31;;;;;;;17.60;3.63;;;8.80;93.40;;;;;;7393583;19;20022;-78
2023/01/27 02:25:08;;;;;;;20.23;3.08;;;8.70;93.30;;;;;;7373599;19;20334;-78
2023/01/27 02:27:39;;;;;;;19.75;3.22;;;8.80;93.30;;;;;;7374431;19;20105;-79
2023/01/27 02:30:09;;;;;;;21.30;3.17;;;8.90;93.30;;;;;;7373833;19;20018;-79
2023/01/27 02:32:38;;;;;;;16.75;2.38;;;8.80;93.20;;;;;;7376108;19;20109;-78
2023/01/27 02:35:10;;;;;;;24.33;3.40;;;8.70;93.40;;;;;;7374889;19;20070;-78
2023/01/27 02:37:40;;;;;;;13.45;2.92;;;8.70;93.50;;;;;;7372022;19;20023;-78
2023/01/27 02:40:10;;;;;;;15.30;2.70;;;8.70;93.30;;;;;;7395008;19;20028;-79
2023/01/27 02:42:42;;;;;;;12.35;2.35;;;8.50;93.60;;;;;;7372713;19;20029;-78
2023/01/27 02:45:11;;;;;;;12.95;2.75;;;8.40;93.50;;;;;;7372323;19;20686;-78
2023/01/27 02:47:40;;;;;;;15.90;3.38;;;8.60;93.60;;;;;;7374829;19;20022;-78
2023/01/27 02:50:10;;;;;;;19.00;2.80;;;8.70;93.50;;;;;;7374825;19;20022;-78
2023/01/27 02:52:39;;;;;;;19.67;3.03;;;8.70;93.40;;;;;;7376104;19;20121;-78
2023/01/27 02:55:09;;;;;;;21.08;3.05;;;8.80;93.40;;;;;;7395885;19;20450;-78
2023/01/27 02:57:43;;;;;;;9.82;2.85;;;8.80;93.20;;;;;;7372081;19;20040;-78
2023/01/27 03:00:13;;;;;;;19.38;2.70;;;8.80;93.10;;;;;;7371343;19;20014;-79
2023/01/27 03:02:42;;;;;;;12.50;2.70;;;8.60;93.00;;;;;;7373773;19;20019;-79
2023/01/27 03:05:13;;;;;;;16.00;3.28;;;8.60;93.10;;;;;;7374867;19;20098;-78
2023/01/27 03:07:42;;;;;;;20.27;2.60;;;8.70;93.30;;;;;;7372455;19;20023;-78
2023/01/27 03:10:12;;;;;;;13.20;2.75;;;8.30;93.50;;;;;;7394403;19;20022;-78
2023/01/27 03:12:45;;;;;;;13.82;2.60;;;8.40;93.70;;;;;;7371833;19;20089;-78
2023/01/27 03:20:36;;;;;;;16.33;2.92;;;8.20;93.60;;;;;;7372981;19;20015;-79
2023/01/27 03:23:05;;;;;;;14.00;3.38;;;8.40;93.70;;;;;;7377872;19;20007;-79
2023/01/27 03:25:33;;;;;;;21.08;3.13;;;8.50;93.40;;;;;;7372110;19;20118;-77
2023/01/27 03:28:05;;;;;;;13.00;3.03;;;8.40;93.10;;;;;;7396695;19;20018;-77
2023/01/27 03:30:33;;;;;;;;;;;8.40;93.20;;;;;;7373210;19;20094;-77
2023/01/27 03:33:04;;;;;;;10.43;2.75;;;8.60;93.10;;;;;;7375308;19;19994;-78
2023/01/27 03:35:37;;;;;;;7.15;2.22;;;8.50;93.40;;;;;;7373172;19;20070;-77
2023/01/27 03:46:19;;;;;;;13.15;2.58;;;8.50;93.10;;;;;;7392503;19;20014;-78
2023/01/27 03:48:53;;;;;;;14.63;2.80;;;8.60;93.00;;;;;;7372242;19;20033;-78
2023/01/27 03:51:24;;;;;;;14.40;2.70;;;8.50;92.90;;;;;;7371079;19;20014;-79
2023/01/27 03:53:52;;;;;;;6.60;2.57;;;8.50;92.90;;;;;;7371236;19;20028;-79
2023/01/27 03:56:23;;;;;;;15.50;3.25;;;8.70;92.90;;;;;;7370590;19;20023;-79
2023/01/27 03:58:54;;;;;;;13.65;2.65;;;8.80;92.60;;;;;;7370118;19;20355;-79
2023/01/27 04:01:24;;;;;;;8.98;2.58;;;8.90;92.50;;;;;;7390616;19;20663;-79
2023/01/27 04:09:21;;;;;;;12.68;2.63;;;9.00;92.30;;;;;;7372479;19;19942;-79
2023/01/27 04:12:03;;;;;;;21.80;3.00;;;9.00;92.50;;;;;;7370403;19;20018;-79
2023/01/27 04:14:36;;;;;;;17.20;3.15;;;8.80;92.40;;;;;;7369281;19;20608;-78
2023/01/27 04:17:07;;;;;;;10.70;2.92;;;8.80;92.50;;;;;;7369599;19;20086;-78
2023/01/27 04:19:36;;;;;;;21.15;3.08;;;8.80;92.40;;;;;;7369505;19;20098;-78
2023/01/27 04:22:05;;;;;;;19.48;3.38;;;8.80;92.60;;;;;;7390097;19;20089;-78
2023/01/27 04:24:34;;;;;;;17.63;3.05;;;8.90;92.70;;;;;;7369391;19;20015;-78
2023/01/27 04:27:04;;;;;;;17.13;2.83;;;8.90;92.70;;;;;;7370954;19;20018;-78
2023/01/27 04:29:39;;;;;;;11.85;2.92;;;8.90;92.50;;;;;;7371687;19;20018;-78
2023/01/27 04:32:09;;;;;;;13.32;2.92;;;8.80;92.50;;;;;;7367311;19;20154;-78
2023/01/27 04:34:38;;;;;;;13.88;2.80;;;8.90;92.70;;;;;;7370105;19;20024;-78
2023/01/27 04:37:08;;;;;;;10.80;2.72;;;9.00;92.60;;;;;;7389756;19;20021;-78
2023/01/27 04:39:37;;;;;;;13.57;3.30;;;9.00;92.80;;;;;;7369642;19;20133;-79
2023/01/27 04:42:07;;;;;;;17.30;3.00;;;9.00;92.30;;;;;;7372479;19;20022;-78
2023/01/27 04:44:38;;;;;;;19.90;3.25;;;8.90;92.30;;;;;;7370667;19;20031;-79
2023/01/27 04:47:07;;;;;;;17.48;2.70;;;8.90;92.40;;;;;;7372116;19;20675;-79
2023/01/27 04:49:36;;;;;;;10.13;2.65;;;8.90;92.40;;;;;;7370113;19;20018;-79
2023/01/27 04:52:05;;;;;;;14.40;3.50;;;8.80;92.40;;;;;;7388763;19;20022;-79
2023/01/27 04:54:33;;;;;;;24.95;3.00;;;8.80;92.40;;;;;;7368601;19;20018;-79
2023/01/27 04:57:04;;;;;;;14.25;2.72;;;8.80;92.30;;;;;;7369783;19;20024;-79
2023/01/27 04:59:33;;;;;;;14.80;3.17;;;8.80;92.20;;;;;;7370623;19;20022;-79
2023/01/27 05:02:04;;;;;;;16.77;3.25;;;8.90;92.20;;;;;;7369169;19;20015;-79
2023/01/27 05:04:33;;;;;;;16.75;3.08;;;8.90;92.30;;;;;;7369060;19;20042;-79
2023/01/27 05:07:03;;;;;;;22.05;3.40;;;8.90;92.00;;;;;;7391232;19;20039;-79
2023/01/27 05:09:31;;;;;;;9.70;2.78;;;8.80;92.00;;;;;;7367930;19;20040;-79
2023/01/27 05:12:00;;;;;;;14.10;2.58;;;8.90;92.00;;;;;;7367476;19;20828;-79
2023/01/27 05:14:29;;;;;;;15.23;2.75;;;9.00;92.10;;;;;;7368919;19;20561;-77
2023/01/27 05:16:57;;;;;;;17.17;3.10;;;8.80;91.40;;;;;;7368604;19;20025;-79
2023/01/27 05:19:29;;;;;;;11.85;2.28;;;8.80;91.70;;;;;;7391312;19;20110;-79
2023/01/27 05:21:57;;;;;;;;;;;8.60;91.60;;;;;;7370322;19;20010;-79
2023/01/27 05:24:26;;;;;;;9.77;2.58;;;8.80;91.90;;;;;;7368335;19;19919;-78
2023/01/27 05:26:55;;;;;;;8.23;2.80;;;8.70;92.00;;;;;;7369534;19;20024;-78
2023/01/27 05:29:23;;;;;;;11.63;2.35;;;8.80;92.10;;;;;;7368514;19;20030;-79
2023/01/27 05:31:52;;;;;;;12.68;2.53;;;8.90;92.00;;;;;;7373389;19;20094;-79
2023/01/27 05:34:21;;;;;;;12.02;2.65;;;8.90;91.30;;;;;;7396578;19;20330;-79
2023/01/27 05:36:52;;;;;;;14.43;2.72;;;8.90;91.30;;;;;;7376072;19;20018;-79
2023/01/27 05:39:21;;;;;;;;;;;8.90;91.30;;;;;;7377208;19;20035;-79
2023/01/27 05:41:49;;;;;;;9.77;2.13;;;9.00;91.50;;;;;;7377269;19;19922;-79
2023/01/27 05:44:18;;;;;;;11.50;2.55;;;8.80;91.10;;;;;;7376550;19;20016;-78
2023/01/27 05:46:47;;;;;;;19.98;2.80;;;8.80;91.20;;;;;;7377012;19;20527;-78
2023/01/27 05:49:15;;;;;;;14.95;2.38;;;8.70;91.20;;;;;;7397531;19;20106;-79
2023/01/27 05:51:44;;;;;;;8.68;2.45;;;8.70;91.20;;;;;;7374953;19;20014;-79
2023/01/27 05:54:19;;;;;;;15.40;3.03;;;8.90;91.30;;;;;;7375463;19;20023;-79
2023/01/27 05:56:47;;;;;;;15.75;2.85;;;8.90;91.70;;;;;;7374997;19;20026;-79
2023/01/27 05:59:16;;;;;;;22.33;3.17;;;9.00;91.60;;;;;;7375133;19;20667;-78
2023/01/27 06:01:45;;;;;;;15.95;2.63;;;9.00;92.00;;;;;;7375008;19;20090;-78
2023/01/27 06:04:13;;;;;;;59.60;3.65;;;8.70;92.20;;;;;;7395655;19;20098;-78
2023/01/27 06:06:42;;;;;;;145.27;7.40;;;8.80;92.50;;;;;;7373938;19;20015;-78
2023/01/27 06:09:16;;;;;;;28.45;3.65;;;8.70;92.80;;;;;;7374478;19;20014;-78
2023/01/27 06:11:44;;;;;;;15.02;2.88;;;8.70;93.10;;;;;;7375642;19;20025;-78
2023/01/27 06:14:13;;;;;;;13.57;2.50;;;8.40;93.20;;;;;;7372409;19;20106;-78
2023/01/27 06:16:42;;;;;;;10.07;2.80;;;8.60;92.30;;;;;;7374267;19;20015;-78
2023/01/27 06:19:12;;;;;;;7.95;2.85;;;8.60;91.80;;;;;;7394590;19;20018;-79
2023/01/27 06:21:40;;;;;;;14.38;2.83;;;8.80;91.60;;;;;;7373965;19;20015;-78
2023/01/27 06:24:09;;;;;;;17.75;2.83;;;8.90;91.50;;;;;;7372555;19;20660;-79
2023/01/27 06:26:41;;;;;;;15.70;2.50;;;8.80;91.10;;;;;;7375939;19;20620;-79
2023/01/27 06:29:10;;;;;;;11.02;2.83;;;8.90;91.30;;;;;;7373926;19;20633;-79
2023/01/27 06:31:39;;;;;;;18.20;3.28;;;9.00;91.20;;;;;;7374700;19;20025;-77
2023/01/27 06:34:08;;;;;;;10.77;2.83;;;9.00;91.20;;;;;;7397325;19;20062;-79
2023/01/27 06:36:36;;;;;;;11.63;2.88;;;9.00;90.90;;;;;;7373084;19;20018;-79
2023/01/27 06:39:05;;;;;;;14.75;3.08;;;9.10;90.90;;;;;;7373773;19;20119;-79
2023/01/27 06:41:34;;;;;;;6.32;2.30;;;8.80;90.80;;;;;;7375224;19;20025;-79
2023/01/27 06:44:05;;;;;;;26.40;3.05;;;8.70;91.40;;;;;;7373293;19;20018;-79
2023/01/27 06:46:34;;;;;;;11.70;2.75;;;8.80;91.20;;;;;;7373917;19;20023;-78
2023/01/27 06:49:03;;;;;;;18.70;2.85;;;8.80;91.00;;;;;;7392241;19;20113;-79
2023/01/27 06:51:31;;;;;;;13.85;2.67;;;8.70;90.90;;;;;;7373851;19;20485;-79
2023/01/27 06:54:00;;;;;;;12.77;3.17;;;8.60;90.80;;;;;;7373385;19;20014;-79
2023/01/27 06:56:29;;;;;;;13.27;2.45;;;8.50;91.00;;;;;;7372218;19;20326;-79
2023/01/27 06:58:57;;;;;;;17.00;2.65;;;8.70;90.90;;;;;;7370271;19;20022;-79
2023/01/27 07:01:29;;;;;;;10.90;3.40;;;8.60;90.60;;;;;;7391471;19;20445;-79
2023/01/27 07:03:57;;;;;;;;;;;8.60;91.00;;;;;;7372597;19;20019;-79
2023/01/27 07:06:26;;;;;;;9.30;3.15;;;8.50;90.80;;;;;;7373067;19;19918;-78
2023/01/27 07:08:54;;;;;;;11.75;2.72;;;8.60;91.00;;;;;;7373400;19;20018;-79
2023/01/27 07:11:24;;;;;;;12.13;3.15;;;8.80;91.10;;;;;;7371709;19;20022;-79
2023/01/27 07:13:52;;;;;;;15.85;2.58;;;8.70;90.80;;;;;;7372233;19;20014;-79
2023/01/27 07:16:21;;;;;;;13.23;3.20;;;8.60;90.90;;;;;;7392956;19;20015;-79
2023/01/27 07:18:53;;;;;;;14.63;2.90;;;8.70;90.90;;;;;;7369795;19;20025;-79
2023/01/27 07:21:21;;;;;;;15.25;3.15;;;8.70;91.10;;;;;;7373455;19;20025;-78
2023/01/27 07:23:50;;;;;;;18.77;2.90;;;8.90;91.20;;;;;;7372922;19;22362;-79
2023/01/27 07:26:19;;;;;;;9.82;2.88;;;8.60;90.90;;;;;;7372420;19;20017;-78
2023/01/27 07:28:47;;;;;;;11.90;3.38;;;8.50;91.20;;;;;;7371390;19;20107;-78
2023/01/27 07:31:16;;;;;;;15.88;3.42;;;8.40;91.00;;;;;;7392531;19;20022;-78
2023/01/27 07:33:45;;;;;;;13.75;2.78;;;8.40;90.90;;;;;;7373795;19;20081;-77
2023/01/27 07:36:16;;;;;;;7.88;3.13;;;8.60;91.10;;;;;;7396634;19;20543;-77
2023/01/27 07:38:44;;;;;;;;;;;8.70;90.80;;;;;;7354752;19;20133;-77
2023/01/27 07:41:13;;;;;;;10.70;3.03;;;8.80;90.50;;;;;;7369637;19;19927;-77
2023/01/27 07:43:42;;;;;;;9.07;3.20;;;8.70;90.40;;;;;;7370909;19;20030;-77
2023/01/27 07:46:11;;;;;;;11.25;2.78;;;8.80;90.30;;;;;;7371853;19;20105;-77
2023/01/27 07:48:39;;;;;;;14.43;3.97;;;8.90;90.40;;;;;;7394074;19;20105;-77
2023/01/27 07:51:08;;;;;;;9.45;3.30;;;9.00;90.50;;;;;;7371940;19;20089;-77
2023/01/27 07:53:39;;;;;;;17.23;3.85;;;9.10;90.40;;;;;;7371181;19;20021;-77
2023/01/27 07:56:10;;;;;;;18.50;4.43;;;9.00;90.20;;;;;;7374144;19;20114;-77
2023/01/27 07:58:40;;;;;;;16.45;3.55;;;9.10;90.20;;;;;;7370789;19;20473;-78
2023/01/27 08:01:09;;;;;;;15.00;3.88;;;9.10;90.10;;;;;;7375876;19;20015;-78
2023/01/27 08:03:38;;;;;;;13.00;3.60;;;9.20;90.00;;;;;;7400409;19;20006;-81
2023/01/27 08:06:11;;;;;;;7.97;3.35;;;9.10;90.00;;;;;;7368602;19;20050;-81
2023/01/27 08:08:43;;;;;;;28.95;4.90;;;9.10;90.00;;;;;;7374511;19;20434;-81
2023/01/27 08:11:13;;;;;;;;;;;9.10;90.00;;;;;;7397799;19;20019;-78
2023/01/27 08:13:42;;;;;;;17.30;4.10;;;9.10;90.00;;;;;;7369338;19;19918;-77
2023/01/27 08:16:14;;;;;;;16.27;3.72;;;9.10;90.20;;;;;;7373898;19;20576;-78
2023/01/27 08:18:43;;;;;;;18.48;4.65;;;9.10;90.10;;;;;;7351837;19;20021;-81
2023/01/27 08:21:14;;;;;;;19.20;4.43;;;9.00;90.10;;;;;;7371868;19;20325;-80
2023/01/27 08:23:45;;;;;;;21.35;5.80;;;8.90;90.50;;;;;;7394226;19;20414;-80
2023/01/27 08:26:14;;;;;;;21.73;4.97;;;8.90;90.80;;;;;;7371095;19;20014;-79
2023/01/27 08:28:43;;;;;;;19.73;4.90;;;9.00;91.10;;;;;;7374694;19;20146;-80
2023/01/27 08:31:13;;;;;;;20.50;4.72;;;9.00;91.20;;;;;;7373386;19;20018;-79
2023/01/27 08:33:43;;;;;;;18.00;4.95;;;9.10;91.00;;;;;;7372635;19;20105;-79
2023/01/27 08:36:14;;;;;;;16.20;5.28;;;9.00;90.50;;;;;;7372807;19;20540;-78
2023/01/27 08:38:48;;;;;;;19.35;5.00;;;8.70;90.10;;;;;;7392679;19;20010;-79
2023/01/27 08:41:19;;;;;;;21.92;4.72;;;8.80;90.10;;;;;;7370788;19;20025;-78
2023/01/27 08:43:47;;;;;;;;;;;8.50;89.90;;;;;;7273357;19;20104;-77
2023/01/27 08:46:17;;;;;;;17.90;5.38;;;8.60;90.40;;;;;;7390790;19;19933;-78
2023/01/27 08:48:45;;;;;;;15.77;5.00;;;8.70;90.70;;;;;;7372650;19;20086;-79
2023/01/27 08:51:15;;;;;;;15.82;5.10;;;8.80;90.40;;;;;;7366080;19;20028;-79
2023/01/27 08:53:47;;;;;;;29.27;5.40;;;8.70;90.10;;;;;;7368651;19;20050;-79
2023/01/27 08:56:16;;;;;;;16.08;5.03;;;8.60;90.20;;;;;;7371035;19;20081;-80
2023/01/27 08:58:47;;;;;;;23.02;6.40;;;8.80;90.30;;;;;;7390813;19;20087;-79
2023/01/27 09:01:16;;;;;;;20.23;5.43;;;8.90;90.10;;;;;;7369634;19;20022;-78
2023/01/27 09:03:45;;;;;;;15.65;5.85;;;9.00;90.10;;;;;;7368067;19;20015;-80
2023/01/27 09:06:15;;;;;;;23.35;5.13;;;9.00;90.00;;;;;;7375396;19;20018;-80
2023/01/27 09:09:07;;;;;;;16.65;5.65;;;9.10;89.80;;;;;;7375862;19;20017;-79
2023/01/27 09:11:36;;;;;;;16.13;5.82;;;9.00;90.00;;;;;;7378185;19;20729;-81
2023/01/27 09:14:05;;;;;;;15.68;6.03;;;9.00;90.00;;;;;;7377898;19;20501;-78
2023/01/27 09:16:34;;;;;;;24.65;6.35;;;9.00;90.10;;;;;;7399492;19;20995;-78
2023/01/27 09:19:02;;;;;;;16.67;6.10;;;9.00;90.20;;;;;;7375801;19;20031;-78
2023/01/27 09:21:32;;;;;;;24.02;6.43;;;9.10;90.00;;;;;;7378345;19;20019;-78
2023/01/27 09:24:03;;;;;;;18.25;6.20;;;8.80;90.10;;;;;;7375700;19;20333;-78
2023/01/27 09:26:33;;;;;;;25.65;6.75;;;8.90;90.10;;;;;;7403003;19;20085;-78
2023/01/27 09:29:02;;;;;;;19.27;6.82;;;9.00;90.10;;;;;;7361579;19;20027;-78
2023/01/27 09:31:30;;;;;;;28.00;6.95;;;9.00;90.10;;;;;;7377248;19;20052;-79
2023/01/27 09:33:59;;;;;;;24.15;6.68;;;9.00;90.00;;;;;;7377771;19;20106;-79
2023/01/27 09:36:29;;;;;;;31.05;6.75;;;9.10;90.10;;;;;;7397471;19;20598;-78
2023/01/27 09:39:04;;;;;;;32.80;7.22;;;9.10;90.40;;;;;;7373865;19;20011;-79
2023/01/27 09:42:23;;;;;;;26.00;7.15;;;9.20;89.90;;;;;;7373180;19;20025;-78
2023/01/27 09:45:30;;;;;;;18.90;6.35;;;9.20;90.00;;;;;;7374450;19;20022;-78
2023/01/27 09:48:25;;;;;;;18.75;5.97;;;9.20;90.00;;;;;;7374853;19;20014;-79
2023/01/27 09:50:59;;;;;;;19.52;5.72;;;9.20;90.00;;;;;;7377078;19;20089;-79
2023/01/27 09:54:00;;;;;;;13.50;4.88;;;9.10;88.80;;;;;;7376252;19;20011;-78
2023/01/27 09:56:44;;;;;;;15.43;5.00;;;9.10;88.40;;;;;;7378874;19;20023;-81
2023/01/27 09:59:31;;;;;;;18.02;5.03;;;8.70;88.20;;;;;;7372838;19;20553;-80
2023/01/27 10:02:11;;;;;;;13.88;4.72;;;8.90;88.90;;;;;;7376963;19;20014;-79
2023/01/27 10:04:57;;;;;;;18.17;4.97;;;9.00;88.50;;;;;;7376324;19;20021;-81
2023/01/27 10:07:38;;;;;;;15.07;4.88;;;9.00;88.30;;;;;;7377011;19;20521;-80
2023/01/27 10:10:21;;;;;;;16.20;4.75;;;9.00;88.00;;;;;;7378195;19;20011;-79
2023/01/27 10:13:09;;;;;;;19.75;5.00;;;9.00;88.10;;;;;;7379111;19;20212;-79
2023/01/27 10:15:49;;;;;;;15.65;5.70;;;9.00;87.80;;;;;;7397646;19;20501;-79
2023/01/27 10:18:31;;;;;;;15.05;4.93;;;8.90;87.70;;;;;;7357855;19;20024;-79
2023/01/27 10:21:07;;;;;;;11.45;4.72;;;9.00;88.00;;;;;;7376055;19;20018;-78
2023/01/27 10:23:51;;;;;;;14.60;5.40;;;9.00;87.70;;;;;;7378758;19;20085;-79
2023/01/27 10:26:25;;;;;;;16.02;4.90;;;9.00;87.50;;;;;;7378373;19;20029;-80
2023/01/27 10:29:04;;;;;;;13.93;4.55;;;8.70;87.00;;;;;;7384272;19;20026;-80
2023/01/27 10:31:37;;;;;;;11.65;5.03;;;8.70;87.30;;;;;;7404432;19;20314;-79
2023/01/27 10:34:16;;;;;;;20.40;5.25;;;8.80;87.50;;;;;;7382793;19;20018;-79
2023/01/27 10:36:53;;;;;;;14.43;5.10;;;8.90;88.20;;;;;;7382951;19;20541;-78
2023/01/27 10:39:30;;;;;;;13.93;4.65;;;8.90;87.40;;;;;;7380538;19;20129;-78
2023/01/27 10:42:05;;;;;;;15.93;4.78;;;8.70;86.90;;;;;;7386085;19;20113;-79
2023/01/27 10:44:49;;;;;;;15.48;4.82;;;8.80;87.40;;;;;;7389834;19;20027;-80
2023/01/27 10:47:30;;;;;;;16.90;4.90;;;8.90;87.00;;;;;;7388087;19;20022;-79
2023/01/27 10:50:03;;;;;;;13.70;4.75;;;8.80;86.70;;;;;;7386325;19;20035;-79
2023/01/27 10:52:37;;;;;;;17.25;5.47;;;8.70;87.10;;;;;;7405583;19;20018;-79
2023/01/27 10:55:16;;;;;;;16.40;5.20;;;8.80;87.50;;;;;;7381946;19;20134;-77
2023/01/27 10:57:50;;;;;;;13.88;4.95;;;9.00;87.40;;;;;;7374704;19;20014;-78
2023/01/27 11:00:30;;;;;;;15.55;4.90;;;9.10;87.30;;;;;;7372564;19;20070;-78
2023/01/27 11:03:06;;;;;;;9.90;4.80;;;9.20;87.30;;;;;;7374730;19;20019;-78
2023/01/27 11:05:39;;;;;;;13.68;4.95;;;9.20;86.20;;;;;;7376338;19;20081;-77
2023/01/27 11:08:14;;;;;;;19.90;5.13;;;9.20;86.00;;;;;;7371502;19;20113;-77
2023/01/27 11:13:29;;;;;;;14.57;4.55;;;9.10;86.00;;;;;;7390298;19;20010;-77
2023/01/27 11:16:01;;;;;;;15.52;5.28;;;9.20;85.80;;;;;;7373059;19;20011;-77
2023/01/27 11:18:37;;;;;;;12.27;5.03;;;9.10;85.60;;;;;;7372010;19;20018;-78
2023/01/27 11:21:11;;;;;;;12.95;5.20;;;9.10;86.20;;;;;;7373792;19;20015;-78
2023/01/27 11:23:44;;;;;;;11.40;5.28;;;9.00;86.10;;;;;;7373879;19;20118;-77
2023/01/27 11:26:22;;;;;;;9.88;4.93;;;8.70;88.10;;;;;;7373283;19;20034;-79
2023/01/27 11:28:58;;;;;;;10.45;4.93;;;8.60;89.00;;;;;;7375352;19;20113;-77
2023/01/27 11:31:39;;;;;;;37.15;6.75;;;8.50;89.10;;;;;;7399388;19;20082;-78
2023/01/27 11:34:13;;;;;;;12.00;5.83;;;8.50;90.30;;;;;;7372714;19;20015;-78
2023/01/27 11:36:42;;;;;;;17.48;5.90;;;8.70;89.60;;;;;;7371927;19;20755;-78
2023/01/27 11:39:12;;;;;;;18.05;5.28;;;8.70;88.00;;;;;;7370064;19;20482;-78
2023/01/27 11:41:48;;;;;;;10.48;5.28;;;8.80;88.10;;;;;;7370815;19;20102;-78
2023/01/27 11:44:21;;;;;;;11.00;5.65;;;8.90;87.90;;;;;;7373496;19;20532;-78
2023/01/27 11:46:53;;;;;;;13.35;5.93;;;9.20;87.80;;;;;;7372127;19;20022;-79
2023/01/27 11:49:29;;;;;;;12.52;6.13;;;9.10;86.30;;;;;;7393010;19;20083;-79
2023/01/27 11:52:04;;;;;;;14.85;5.72;;;9.20;86.90;;;;;;7374121;19;20089;-80
2023/01/27 11:54:38;;;;;;;15.02;5.82;;;9.30;87.00;;;;;;7373624;19;20078;-79
2023/01/27 11:57:06;;;;;;;12.45;5.85;;;9.40;86.70;;;;;;7371831;19;20504;-79
2023/01/27 11:59:41;;;;;;;15.52;6.55;;;9.40;86.40;;;;;;7372584;19;20070;-80
2023/01/27 12:02:25;;;;;;;17.00;7.03;;;9.30;86.30;;;;;;7372644;19;20039;-79
2023/01/27 12:05:01;;;;;;;16.60;7.03;;;9.20;86.30;;;;;;7371771;19;20022;-78
2023/01/27 12:07:42;;;;;;;15.73;6.95;;;9.20;86.30;;;;;;7393631;19;20022;-79
2023/01/27 12:10:26;;;;;;;15.88;6.72;;;9.20;86.50;;;;;;7373862;19;20086;-78
2023/01/27 12:12:55;;;;;;;17.73;6.15;;;9.20;86.40;;;;;;7376976;19;20102;-79
2023/01/27 12:15:29;;;;;;;19.77;6.93;;;9.20;86.40;;;;;;7373254;19;20018;-78
2023/01/27 12:18:04;;;;;;;17.20;7.22;;;9.10;86.60;;;;;;7375404;19;20578;-77
2023/01/27 12:20:36;;;;;;;21.70;6.90;;;9.00;87.00;;;;;;7375079;19;20114;-78
2023/01/27 12:23:16;;;;;;;20.02;7.13;;;9.10;87.20;;;;;;7372656;19;20641;-80
2023/01/27 12:25:49;;;;;;;22.45;7.45;;;8.90;86.70;;;;;;7372613;19;20022;-80
2023/01/27 12:28:26;;;;;;;17.10;7.13;;;9.10;87.30;;;;;;7397080;19;20020;-80
2023/01/27 12:30:58;;;;;;;18.35;7.43;;;9.20;87.20;;;;;;7373626;19;20093;-80
2023/01/27 12:33:33;;;;;;;18.83;6.80;;;9.20;86.40;;;;;;7375769;19;20527;-79
2023/01/27 12:36:05;;;;;;;22.05;7.35;;;9.20;86.50;;;;;;7376330;19;20093;-80
2023/01/27 12:38:36;;;;;;;18.30;7.50;;;9.00;86.40;;;;;;7376936;19;20142;-78
2023/01/27 12:41:07;;;;;;;14.10;6.63;;;9.00;86.80;;;;;;7375041;19;20367;-78
2023/01/27 12:43:52;;;;;;;15.38;7.13;;;9.00;87.20;;;;;;7396182;19;20010;-85
2023/01/27 12:46:24;;;;;;;18.15;6.88;;;9.20;86.90;;;;;;7377472;19;20029;-84
2023/01/27 12:49:02;;;;;;;16.85;8.02;;;9.10;87.30;;;;;;7376997;19;20102;-84
2023/01/27 12:51:42;;;;;;;25.35;7.65;;;8.80;88.90;;;;;;7379108;19;20510;-83
2023/01/27 12:54:19;;;;;;;20.77;7.75;;;8.90;88.80;;;;;;7379726;19;20010;-84
2023/01/27 12:56:48;;;;;;;18.98;7.50;;;9.00;88.90;;;;;;7374731;19;20014;-79
2023/01/27 12:59:20;;;;;;;24.92;7.78;;;9.10;88.00;;;;;;7374795;19;20082;-83
2023/01/27 13:02:00;;;;;;;21.70;7.88;;;9.20;87.60;;;;;;7372358;19;20082;-81
2023/01/27 13:04:32;;;;;;;19.00;7.78;;;9.30;87.40;;;;;;7401082;19;20035;-81
2023/01/27 13:07:08;;;;;;;24.23;7.95;;;9.20;86.50;;;;;;7385368;19;20036;-83
2023/01/27 13:09:40;;;;;;;22.40;8.07;;;9.30;86.70;;;;;;7383110;19;20018;-89
2023/01/27 13:12:19;;;;;;;19.08;8.02;;;9.20;87.00;;;;;;7379093;19;20090;-89
2023/01/27 13:14:52;;;;;;;19.75;8.52;;;9.20;86.70;;;;;;7380575;19;20042;-89
2023/01/27 13:17:32;;;;;;;17.42;7.57;;;9.20;86.90;;;;;;7380648;19;20113;-89
2023/01/27 13:20:06;;;;;;;22.25;7.30;;;9.10;87.30;;;;;;7381269;19;20043;-89
2023/01/27 13:22:43;;;;;;;24.40;8.07;;;9.20;87.20;;;;;;7407513;19;20023;-89
2023/01/27 13:25:20;;;;;;;15.38;7.03;;;9.10;86.70;;;;;;7388960;19;20031;-89
2023/01/27 13:27:51;;;;;;;20.73;7.18;;;9.10;86.90;;;;;;7387194;19;20018;-89
2023/01/27 13:30:28;;;;;;;25.27;8.20;;;8.90;87.20;;;;;;7387236;19;20460;-89
2023/01/27 13:33:04;;;;;;;22.95;8.68;;;9.00;87.50;;;;;;7383834;19;20029;-89
2023/01/27 13:35:39;;;;;;;21.45;7.85;;;9.10;87.80;;;;;;7383245;19;20014;-89
2023/01/27 13:38:17;;;;;;;19.17;8.93;;;9.10;87.90;;;;;;7379751;19;20042;-89
2023/01/27 13:40:48;;;;;;;17.63;7.88;;;9.20;88.20;;;;;;7381087;19;20027;-86
2023/01/27 13:43:22;;;;;;;16.00;8.40;;;9.30;88.30;;;;;;7399326;19;20097;-87
2023/01/27 13:45:56;;;;;;;18.17;7.95;;;9.40;88.20;;;;;;7372605;19;20019;-88
2023/01/27 13:48:29;;;;;;;122.20;14.50;;;9.40;88.00;;;;;;7371883;19;20018;-86